sensor_id;sensor_type;location;lat;lon;timestamp;temperature;humidity
20288;DHT22;10303;51.960;8.372;2022-12-31T00:02:05;16.50;99.90
20288;DHT22;10303;51.960;8.372;2022-12-31T00:04:31;16.60;99.90
20288;DHT22;10303;51.960;8.372;2022-12-31T00:06:56;16.60;99.90
20288;DHT22;10303;51.960;8.372;2022-12-31T00:09:22;16.70;99.90
20288;DHT22;10303;51.960;8.372;2022-12-31T00:11:48;16.70;99.90
20288;DHT22;10303;51.960;8.372;2022-12-31T00:14:14;16.60;99.90
20288;DHT22;10303;51.960;8.372;2022-12-31T00:16:41;16.60;99.90
20288;DHT22;10303;51.960;8.372;2022-12-31T00:19:09;16.50;99.90
20288;DHT22;10303;51.960;8.372;2022-12-31T00:21:36;16.50;99.90
20288;DHT22;10303;51.960;8.372;2022-12-31T00:24:04;16.50;99.90
20288;DHT22;10303;51.960;8.372;2022-12-31T00:26:32;16.60;99.90
20288;DHT22;10303;51.960;8.372;2022-12-31T00:29:00;16.50;99.90
20288;DHT22;10303;51.960;8.372;2022-12-31T00:31:30;16.60;99.90
20288;DHT22;10303;51.960;8.372;2022-12-31T00:33:58;16.60;99.90
20288;DHT22;10303;51.960;8.372;2022-12-31T00:36:27;16.60;99.90
20288;DHT22;10303;51.960;8.372;2022-12-31T00:38:56;16.60;99.90
20288;DHT22;10303;51.960;8.372;2022-12-31T00:41:24;16.50;99.90
20288;DHT22;10303;51.960;8.372;2022-12-31T00:43:51;16.40;99.90
20288;DHT22;10303;51.960;8.372;2022-12-31T00:46:18;16.40;99.90
20288;DHT22;10303;51.960;8.372;2022-12-31T00:48:44;16.50;99.90
20288;DHT22;10303;51.960;8.372;2022-12-31T00:51:12;16.50;99.90
20288;DHT22;10303;51.960;8.372;2022-12-31T00:53:40;16.50;99.90
20288;DHT22;10303;51.960;8.372;2022-12-31T00:56:13;16.50;99.90
20288;DHT22;10303;51.960;8.372;2022-12-31T00:58:44;16.50;99.90
20288;DHT22;10303;51.960;8.372;2022-12-31T01:01:17;16.50;99.90
20288;DHT22;10303;51.960;8.372;2022-12-31T01:03:46;16.50;99.90
20288;DHT22;10303;51.960;8.372;2022-12-31T01:06:14;16.50;99.90
20288;DHT22;10303;51.960;8.372;2022-12-31T01:08:40;16.50;99.90
20288;DHT22;10303;51.960;8.372;2022-12-31T01:11:06;16.50;99.90
20288;DHT22;10303;51.960;8.372;2022-12-31T01:14:06;16.50;99.90
20288;DHT22;10303;51.960;8.372;2022-12-31T01:16:43;16.50;99.90
20288;DHT22;10303;51.960;8.372;2022-12-31T01:19:16;16.50;99.90
20288;DHT22;10303;51.960;8.372;2022-12-31T01:21:47;16.50;99.90
20288;DHT22;10303;51.960;8.372;2022-12-31T01:24:15;16.60;99.90
20288;DHT22;10303;51.960;8.372;2022-12-31T01:26:41;16.60;99.90
20288;DHT22;10303;51.960;8.372;2022-12-31T01:29:09;16.60;99.90
20288;DHT22;10303;51.960;8.372;2022-12-31T01:31:36;16.60;99.90
20288;DHT22;10303;51.960;8.372;2022-12-31T01:34:03;16.60;99.90
20288;DHT22;10303;51.960;8.372;2022-12-31T01:36:31;16.50;99.90
20288;DHT22;10303;51.960;8.372;2022-12-31T01:38:59;16.50;99.90
20288;DHT22;10303;51.960;8.372;2022-12-31T01:41:33;16.50;99.90
20288;DHT22;10303;51.960;8.372;2022-12-31T01:46:46;16.50;99.90
20288;DHT22;10303;51.960;8.372;2022-12-31T01:49:25;16.50;99.90
20288;DHT22;10303;51.960;8.372;2022-12-31T01:52:06;16.50;99.90
20288;DHT22;10303;51.960;8.372;2022-12-31T01:54:45;16.50;99.90
20288;DHT22;10303;51.960;8.372;2022-12-31T01:57:16;16.50;99.90
20288;DHT22;10303;51.960;8.372;2022-12-31T01:59:44;16.40;99.90
20288;DHT22;10303;51.960;8.372;2022-12-31T02:02:10;16.50;99.90
20288;DHT22;10303;51.960;8.372;2022-12-31T02:04:38;16.50;99.90
20288;DHT22;10303;51.960;8.372;2022-12-31T02:07:07;16.40;99.90
20288;DHT22;10303;51.960;8.372;2022-12-31T02:09:37;16.40;99.90
20288;DHT22;10303;51.960;8.372;2022-12-31T02:12:06;16.40;99.90
20288;DHT22;10303;51.960;8.372;2022-12-31T02:14:37;16.40;99.90
20288;DHT22;10303;51.960;8.372;2022-12-31T02:23:47;16.40;99.90
20288;DHT22;10303;51.960;8.372;2022-12-31T02:37:51;16.40;99.90
20288;DHT22;10303;51.960;8.372;2022-12-31T02:40:22;16.30;99.90
20288;DHT22;10303;51.960;8.372;2022-12-31T02:42:48;16.40;99.90
20288;DHT22;10303;51.960;8.372;2022-12-31T02:45:19;16.40;99.90
20288;DHT22;10303;51.960;8.372;2022-12-31T02:48:20;16.40;99.90
20288;DHT22;10303;51.960;8.372;2022-12-31T03:02:13;16.30;99.90
20288;DHT22;10303;51.960;8.372;2022-12-31T03:04:52;16.40;99.90
20288;DHT22;10303;51.960;8.372;2022-12-31T03:07:23;16.30;99.90
20288;DHT22;10303;51.960;8.372;2022-12-31T03:09:52;16.30;99.90
20288;DHT22;10303;51.960;8.372;2022-12-31T03:12:22;16.30;99.90
20288;DHT22;10303;51.960;8.372;2022-12-31T03:15:10;16.30;99.90
20288;DHT22;10303;51.960;8.372;2022-12-31T03:20:26;16.30;99.90
20288;DHT22;10303;51.960;8.372;2022-12-31T03:23:20;16.30;99.90
20288;DHT22;10303;51.960;8.372;2022-12-31T03:25:48;16.30;99.90
20288;DHT22;10303;51.960;8.372;2022-12-31T03:28:16;16.30;99.90
20288;DHT22;10303;51.960;8.372;2022-12-31T03:30:47;16.30;99.90
20288;DHT22;10303;51.960;8.372;2022-12-31T03:33:15;16.40;99.90
20288;DHT22;10303;51.960;8.372;2022-12-31T03:35:43;16.30;99.90
20288;DHT22;10303;51.960;8.372;2022-12-31T03:38:10;16.30;99.90
20288;DHT22;10303;51.960;8.372;2022-12-31T03:40:41;16.30;99.90
20288;DHT22;10303;51.960;8.372;2022-12-31T03:43:09;16.40;99.90
20288;DHT22;10303;51.960;8.372;2022-12-31T03:45:36;16.40;99.90
20288;DHT22;10303;51.960;8.372;2022-12-31T03:48:05;16.50;99.90
20288;DHT22;10303;51.960;8.372;2022-12-31T03:50:32;16.50;99.90
20288;DHT22;10303;51.960;8.372;2022-12-31T03:52:59;16.50;99.90
20288;DHT22;10303;51.960;8.372;2022-12-31T03:55:26;16.60;99.90
20288;DHT22;10303;51.960;8.372;2022-12-31T03:57:52;16.70;99.90
20288;DHT22;10303;51.960;8.372;2022-12-31T04:00:20;16.70;99.90
20288;DHT22;10303;51.960;8.372;2022-12-31T04:02:47;16.70;99.90
20288;DHT22;10303;51.960;8.372;2022-12-31T04:05:15;16.80;99.90
20288;DHT22;10303;51.960;8.372;2022-12-31T04:07:41;16.90;99.90
20288;DHT22;10303;51.960;8.372;2022-12-31T04:10:10;16.90;99.90
20288;DHT22;10303;51.960;8.372;2022-12-31T04:12:38;16.50;99.90
20288;DHT22;10303;51.960;8.372;2022-12-31T04:15:05;15.60;99.90
20288;DHT22;10303;51.960;8.372;2022-12-31T04:17:32;15.50;99.90
20288;DHT22;10303;51.960;8.372;2022-12-31T04:19:58;15.00;99.90
20288;DHT22;10303;51.960;8.372;2022-12-31T04:22:24;15.30;99.90
20288;DHT22;10303;51.960;8.372;2022-12-31T04:24:50;14.90;99.90
20288;DHT22;10303;51.960;8.372;2022-12-31T04:27:17;15.10;99.90
20288;DHT22;10303;51.960;8.372;2022-12-31T04:29:42;15.20;99.90
20288;DHT22;10303;51.960;8.372;2022-12-31T04:32:09;15.10;99.90
20288;DHT22;10303;51.960;8.372;2022-12-31T04:34:35;15.30;99.90
20288;DHT22;10303;51.960;8.372;2022-12-31T04:37:02;15.20;99.90
20288;DHT22;10303;51.960;8.372;2022-12-31T04:39:28;15.60;99.90
20288;DHT22;10303;51.960;8.372;2022-12-31T04:41:54;15.50;99.90
20288;DHT22;10303;51.960;8.372;2022-12-31T04:44:20;15.70;99.90
20288;DHT22;10303;51.960;8.372;2022-12-31T04:46:46;15.90;99.90
20288;DHT22;10303;51.960;8.372;2022-12-31T04:49:14;16.10;99.90
20288;DHT22;10303;51.960;8.372;2022-12-31T04:51:40;16.20;99.90
20288;DHT22;10303;51.960;8.372;2022-12-31T04:54:06;16.20;99.90
20288;DHT22;10303;51.960;8.372;2022-12-31T04:56:32;16.30;99.90
20288;DHT22;10303;51.960;8.372;2022-12-31T04:59:01;16.40;99.90
20288;DHT22;10303;51.960;8.372;2022-12-31T05:01:28;16.40;99.90
20288;DHT22;10303;51.960;8.372;2022-12-31T05:03:54;16.50;99.90
20288;DHT22;10303;51.960;8.372;2022-12-31T05:06:22;16.50;99.90
20288;DHT22;10303;51.960;8.372;2022-12-31T05:08:48;16.60;99.90
20288;DHT22;10303;51.960;8.372;2022-12-31T05:11:16;16.60;99.90
20288;DHT22;10303;51.960;8.372;2022-12-31T05:13:42;16.60;99.90
20288;DHT22;10303;51.960;8.372;2022-12-31T05:16:09;16.60;99.90
20288;DHT22;10303;51.960;8.372;2022-12-31T05:18:35;16.60;99.90
20288;DHT22;10303;51.960;8.372;2022-12-31T05:21:01;16.60;99.90
20288;DHT22;10303;51.960;8.372;2022-12-31T05:23:27;16.70;99.90
20288;DHT22;10303;51.960;8.372;2022-12-31T05:25:54;16.70;99.90
20288;DHT22;10303;51.960;8.372;2022-12-31T05:28:20;16.70;99.90
20288;DHT22;10303;51.960;8.372;2022-12-31T05:30:49;16.70;99.90
20288;DHT22;10303;51.960;8.372;2022-12-31T05:33:16;16.70;99.90
20288;DHT22;10303;51.960;8.372;2022-12-31T05:35:43;16.70;99.90
20288;DHT22;10303;51.960;8.372;2022-12-31T05:38:09;16.70;99.90
20288;DHT22;10303;51.960;8.372;2022-12-31T05:40:35;16.70;99.90
20288;DHT22;10303;51.960;8.372;2022-12-31T05:43:01;16.70;99.90
20288;DHT22;10303;51.960;8.372;2022-12-31T05:45:27;16.70;99.90
20288;DHT22;10303;51.960;8.372;2022-12-31T05:47:53;16.70;99.90
20288;DHT22;10303;51.960;8.372;2022-12-31T05:50:19;16.70;99.90
20288;DHT22;10303;51.960;8.372;2022-12-31T05:52:53;16.70;99.90
20288;DHT22;10303;51.960;8.372;2022-12-31T05:55:19;16.70;99.90
20288;DHT22;10303;51.960;8.372;2022-12-31T05:57:45;16.60;99.90
20288;DHT22;10303;51.960;8.372;2022-12-31T06:00:11;16.60;99.90
20288;DHT22;10303;51.960;8.372;2022-12-31T06:02:41;16.60;99.90
20288;DHT22;10303;51.960;8.372;2022-12-31T06:05:07;16.60;99.90
20288;DHT22;10303;51.960;8.372;2022-12-31T06:07:33;16.60;99.90
20288;DHT22;10303;51.960;8.372;2022-12-31T06:09:59;16.70;99.90
20288;DHT22;10303;51.960;8.372;2022-12-31T06:12:25;16.70;99.90
20288;DHT22;10303;51.960;8.372;2022-12-31T06:14:51;16.70;99.90
20288;DHT22;10303;51.960;8.372;2022-12-31T06:17:18;16.70;99.90
20288;DHT22;10303;51.960;8.372;2022-12-31T06:19:46;16.70;99.90
20288;DHT22;10303;51.960;8.372;2022-12-31T06:22:12;16.80;99.90
20288;DHT22;10303;51.960;8.372;2022-12-31T06:24:38;16.70;99.90
20288;DHT22;10303;51.960;8.372;2022-12-31T06:27:04;16.80;99.90
20288;DHT22;10303;51.960;8.372;2022-12-31T06:29:30;16.70;99.90
20288;DHT22;10303;51.960;8.372;2022-12-31T06:31:56;16.80;99.90
20288;DHT22;10303;51.960;8.372;2022-12-31T06:34:22;16.80;99.90
20288;DHT22;10303;51.960;8.372;2022-12-31T06:36:48;16.90;99.90
20288;DHT22;10303;51.960;8.372;2022-12-31T06:39:13;17.00;99.90
20288;DHT22;10303;51.960;8.372;2022-12-31T06:41:39;17.10;99.90
20288;DHT22;10303;51.960;8.372;2022-12-31T06:44:05;17.10;99.90
20288;DHT22;10303;51.960;8.372;2022-12-31T06:46:31;17.20;99.90
20288;DHT22;10303;51.960;8.372;2022-12-31T06:48:57;17.20;99.90
20288;DHT22;10303;51.960;8.372;2022-12-31T06:51:23;17.20;99.90
20288;DHT22;10303;51.960;8.372;2022-12-31T06:53:50;17.40;99.90
20288;DHT22;10303;51.960;8.372;2022-12-31T06:56:21;17.20;99.90
20288;DHT22;10303;51.960;8.372;2022-12-31T06:58:50;17.30;99.90
20288;DHT22;10303;51.960;8.372;2022-12-31T07:01:48;17.40;99.90
20288;DHT22;10303;51.960;8.372;2022-12-31T07:04:28;17.50;99.90
20288;DHT22;10303;51.960;8.372;2022-12-31T07:07:20;17.40;99.90
20288;DHT22;10303;51.960;8.372;2022-12-31T07:15:55;17.70;99.90
20288;DHT22;10303;51.960;8.372;2022-12-31T07:18:34;17.80;99.90
20288;DHT22;10303;51.960;8.372;2022-12-31T07:21:14;17.80;99.90
20288;DHT22;10303;51.960;8.372;2022-12-31T07:23:42;17.70;99.90
20288;DHT22;10303;51.960;8.372;2022-12-31T07:29:32;17.80;99.90
20288;DHT22;10303;51.960;8.372;2022-12-31T07:32:17;17.70;99.90
20288;DHT22;10303;51.960;8.372;2022-12-31T07:37:56;17.50;99.90
20288;DHT22;10303;51.960;8.372;2022-12-31T07:46:54;17.80;99.90
20288;DHT22;10303;51.960;8.372;2022-12-31T07:49:28;17.70;99.90
20288;DHT22;10303;51.960;8.372;2022-12-31T07:51:55;17.70;99.90
20288;DHT22;10303;51.960;8.372;2022-12-31T07:54:21;17.80;99.90
20288;DHT22;10303;51.960;8.372;2022-12-31T07:56:48;17.90;99.90
20288;DHT22;10303;51.960;8.372;2022-12-31T07:59:27;18.00;99.90
20288;DHT22;10303;51.960;8.372;2022-12-31T08:02:32;17.90;99.90
20288;DHT22;10303;51.960;8.372;2022-12-31T08:08:20;18.10;99.90
20288;DHT22;10303;51.960;8.372;2022-12-31T08:13:41;18.30;99.90
20288;DHT22;10303;51.960;8.372;2022-12-31T08:16:10;18.10;99.90
20288;DHT22;10303;51.960;8.372;2022-12-31T08:18:38;18.30;99.90
20288;DHT22;10303;51.960;8.372;2022-12-31T08:21:13;18.30;99.90
20288;DHT22;10303;51.960;8.372;2022-12-31T08:29:45;18.50;99.90
20288;DHT22;10303;51.960;8.372;2022-12-31T08:36:05;18.70;99.90
20288;DHT22;10303;51.960;8.372;2022-12-31T08:41:34;18.60;99.90
20288;DHT22;10303;51.960;8.372;2022-12-31T08:50:24;18.70;99.90
20288;DHT22;10303;51.960;8.372;2022-12-31T08:52:50;18.80;99.90
20288;DHT22;10303;51.960;8.372;2022-12-31T08:55:17;18.90;99.90
20288;DHT22;10303;51.960;8.372;2022-12-31T08:57:58;19.00;99.90
20288;DHT22;10303;51.960;8.372;2022-12-31T09:00:29;18.90;99.90
20288;DHT22;10303;51.960;8.372;2022-12-31T09:03:27;19.00;99.90
20288;DHT22;10303;51.960;8.372;2022-12-31T09:06:33;19.10;99.90
20288;DHT22;10303;51.960;8.372;2022-12-31T09:09:08;19.10;99.90
20288;DHT22;10303;51.960;8.372;2022-12-31T09:12:03;19.10;99.90
20288;DHT22;10303;51.960;8.372;2022-12-31T09:14:47;19.20;99.90
20288;DHT22;10303;51.960;8.372;2022-12-31T09:17:38;19.30;99.90
20288;DHT22;10303;51.960;8.372;2022-12-31T09:20:21;19.30;99.90
20288;DHT22;10303;51.960;8.372;2022-12-31T09:22:51;19.40;99.90
20288;DHT22;10303;51.960;8.372;2022-12-31T09:25:20;19.30;99.90
20288;DHT22;10303;51.960;8.372;2022-12-31T09:27:55;19.20;99.90
20288;DHT22;10303;51.960;8.372;2022-12-31T09:30:22;19.30;99.90
20288;DHT22;10303;51.960;8.372;2022-12-31T09:33:11;19.30;99.90
20288;DHT22;10303;51.960;8.372;2022-12-31T09:35:57;19.20;99.90
20288;DHT22;10303;51.960;8.372;2022-12-31T09:38:46;19.20;99.90
20288;DHT22;10303;51.960;8.372;2022-12-31T09:48:17;19.30;99.90
20288;DHT22;10303;51.960;8.372;2022-12-31T10:02:46;19.40;99.90
20288;DHT22;10303;51.960;8.372;2022-12-31T10:05:49;19.40;99.90
20288;DHT22;10303;51.960;8.372;2022-12-31T10:08:52;19.60;99.90
20288;DHT22;10303;51.960;8.372;2022-12-31T10:20:49;19.60;99.90
20288;DHT22;10303;51.960;8.372;2022-12-31T10:23:54;19.60;99.90
20288;DHT22;10303;51.960;8.372;2022-12-31T10:27:04;19.40;99.90
20288;DHT22;10303;51.960;8.372;2022-12-31T10:33:05;19.30;99.90
20288;DHT22;10303;51.960;8.372;2022-12-31T10:36:08;19.40;99.90
20288;DHT22;10303;51.960;8.372;2022-12-31T10:39:18;19.50;99.90
20288;DHT22;10303;51.960;8.372;2022-12-31T10:51:36;18.90;99.90
20288;DHT22;10303;51.960;8.372;2022-12-31T11:05:48;19.00;99.90
20288;DHT22;10303;51.960;8.372;2022-12-31T11:12:03;18.90;99.90
20288;DHT22;10303;51.960;8.372;2022-12-31T11:14:33;19.00;99.90
20288;DHT22;10303;51.960;8.372;2022-12-31T11:26:13;18.90;99.90
20288;DHT22;10303;51.960;8.372;2022-12-31T11:37:52;19.30;99.90
20288;DHT22;10303;51.960;8.372;2022-12-31T11:40:32;19.50;99.90
20288;DHT22;10303;51.960;8.372;2022-12-31T11:48:49;19.80;99.90
20288;DHT22;10303;51.960;8.372;2022-12-31T11:57:49;20.20;99.90
20288;DHT22;10303;51.960;8.372;2022-12-31T12:00:17;20.00;99.90
20288;DHT22;10303;51.960;8.372;2022-12-31T12:03:03;20.30;99.90
20288;DHT22;10303;51.960;8.372;2022-12-31T12:05:31;20.30;99.90
20288;DHT22;10303;51.960;8.372;2022-12-31T12:07:59;20.30;99.90
20288;DHT22;10303;51.960;8.372;2022-12-31T12:10:47;20.30;99.90
20288;DHT22;10303;51.960;8.372;2022-12-31T12:13:26;20.40;99.90
20288;DHT22;10303;51.960;8.372;2022-12-31T12:15:57;20.30;99.90
20288;DHT22;10303;51.960;8.372;2022-12-31T12:18:48;20.30;99.90
20288;DHT22;10303;51.960;8.372;2022-12-31T12:21:25;20.30;99.90
20288;DHT22;10303;51.960;8.372;2022-12-31T12:24:02;20.40;99.90
20288;DHT22;10303;51.960;8.372;2022-12-31T12:26:35;20.30;99.90
20288;DHT22;10303;51.960;8.372;2022-12-31T12:29:16;20.20;99.90
20288;DHT22;10303;51.960;8.372;2022-12-31T12:36:54;19.80;99.90
20288;DHT22;10303;51.960;8.372;2022-12-31T12:39:23;19.70;99.90
20288;DHT22;10303;51.960;8.372;2022-12-31T12:42:14;19.80;99.90
20288;DHT22;10303;51.960;8.372;2022-12-31T12:44:40;19.90;99.90
20288;DHT22;10303;51.960;8.372;2022-12-31T12:47:15;19.90;99.90
20288;DHT22;10303;51.960;8.372;2022-12-31T12:49:47;20.00;99.90
20288;DHT22;10303;51.960;8.372;2022-12-31T13:01:03;19.90;99.90
20288;DHT22;10303;51.960;8.372;2022-12-31T13:04:30;19.90;99.90
20288;DHT22;10303;51.960;8.372;2022-12-31T13:13:23;19.80;99.90
20288;DHT22;10303;51.960;8.372;2022-12-31T13:16:06;19.90;99.90
20288;DHT22;10303;51.960;8.372;2022-12-31T13:19:24;20.00;99.90
20288;DHT22;10303;51.960;8.372;2022-12-31T13:28:11;20.10;99.90
20288;DHT22;10303;51.960;8.372;2022-12-31T13:30:47;20.10;99.90
20288;DHT22;10303;51.960;8.372;2022-12-31T13:33:19;20.10;99.90
20288;DHT22;10303;51.960;8.372;2022-12-31T13:35:52;20.10;99.90
20288;DHT22;10303;51.960;8.372;2022-12-31T13:38:30;20.20;99.90
20288;DHT22;10303;51.960;8.372;2022-12-31T13:46:35;19.80;99.90
20288;DHT22;10303;51.960;8.372;2022-12-31T13:49:40;19.60;99.90
20288;DHT22;10303;51.960;8.372;2022-12-31T13:55:22;19.70;99.90
20288;DHT22;10303;51.960;8.372;2022-12-31T13:58:18;19.40;99.90
20288;DHT22;10303;51.960;8.372;2022-12-31T14:00:59;19.60;99.90
20288;DHT22;10303;51.960;8.372;2022-12-31T14:04:09;19.20;99.90
20288;DHT22;10303;51.960;8.372;2022-12-31T14:09:28;19.40;99.90
20288;DHT22;10303;51.960;8.372;2022-12-31T14:20:47;19.60;99.90
20288;DHT22;10303;51.960;8.372;2022-12-31T14:26:30;19.70;99.90
20288;DHT22;10303;51.960;8.372;2022-12-31T14:29:03;19.80;99.90
20288;DHT22;10303;51.960;8.372;2022-12-31T14:34:24;19.70;99.90
20288;DHT22;10303;51.960;8.372;2022-12-31T14:42:29;19.80;99.90
20288;DHT22;10303;51.960;8.372;2022-12-31T14:47:51;19.80;99.90
20288;DHT22;10303;51.960;8.372;2022-12-31T14:50:24;19.80;99.90
20288;DHT22;10303;51.960;8.372;2022-12-31T14:53:07;19.80;99.90
20288;DHT22;10303;51.960;8.372;2022-12-31T14:55:42;19.80;99.90
20288;DHT22;10303;51.960;8.372;2022-12-31T14:58:28;19.70;99.90
20288;DHT22;10303;51.960;8.372;2022-12-31T15:01:18;19.80;99.90
20288;DHT22;10303;51.960;8.372;2022-12-31T15:03:47;19.60;99.90
20288;DHT22;10303;51.960;8.372;2022-12-31T15:17:49;19.60;99.90
20288;DHT22;10303;51.960;8.372;2022-12-31T15:20:37;19.60;99.90
20288;DHT22;10303;51.960;8.372;2022-12-31T15:23:22;19.50;99.90
20288;DHT22;10303;51.960;8.372;2022-12-31T15:25:58;19.50;99.90
20288;DHT22;10303;51.960;8.372;2022-12-31T15:28:36;19.50;99.90
20288;DHT22;10303;51.960;8.372;2022-12-31T15:31:15;19.40;99.90
20288;DHT22;10303;51.960;8.372;2022-12-31T15:33:56;19.50;99.90
20288;DHT22;10303;51.960;8.372;2022-12-31T15:36:36;19.40;99.90
20288;DHT22;10303;51.960;8.372;2022-12-31T15:39:05;19.40;99.90
20288;DHT22;10303;51.960;8.372;2022-12-31T15:41:48;19.40;99.90
20288;DHT22;10303;51.960;8.372;2022-12-31T15:47:39;19.50;99.90
20288;DHT22;10303;51.960;8.372;2022-12-31T15:50:15;19.50;99.90
20288;DHT22;10303;51.960;8.372;2022-12-31T15:52:56;19.40;99.90
20288;DHT22;10303;51.960;8.372;2022-12-31T15:58:15;19.30;99.90
20288;DHT22;10303;51.960;8.372;2022-12-31T16:00:56;19.30;99.90
20288;DHT22;10303;51.960;8.372;2022-12-31T16:04:06;19.40;99.90
20288;DHT22;10303;51.960;8.372;2022-12-31T16:06:39;19.30;99.90
20288;DHT22;10303;51.960;8.372;2022-12-31T16:09:17;19.30;99.90
20288;DHT22;10303;51.960;8.372;2022-12-31T16:11:44;19.20;99.90
20288;DHT22;10303;51.960;8.372;2022-12-31T16:14:24;19.20;99.90
20288;DHT22;10303;51.960;8.372;2022-12-31T16:16:58;19.10;99.90
20288;DHT22;10303;51.960;8.372;2022-12-31T16:19:40;19.20;99.90
20288;DHT22;10303;51.960;8.372;2022-12-31T16:22:17;19.10;99.90
20288;DHT22;10303;51.960;8.372;2022-12-31T16:24:59;19.10;99.90
20288;DHT22;10303;51.960;8.372;2022-12-31T16:27:26;19.10;99.90
20288;DHT22;10303;51.960;8.372;2022-12-31T16:30:06;19.10;99.90
20288;DHT22;10303;51.960;8.372;2022-12-31T16:32:46;19.10;99.90
20288;DHT22;10303;51.960;8.372;2022-12-31T16:35:40;19.00;99.90
20288;DHT22;10303;51.960;8.372;2022-12-31T16:40:32;19.10;99.90
20288;DHT22;10303;51.960;8.372;2022-12-31T16:42:59;19.10;99.90
20288;DHT22;10303;51.960;8.372;2022-12-31T16:45:32;19.10;99.90
20288;DHT22;10303;51.960;8.372;2022-12-31T16:48:08;19.10;99.90
20288;DHT22;10303;51.960;8.372;2022-12-31T16:50:49;19.10;99.90
20288;DHT22;10303;51.960;8.372;2022-12-31T16:53:24;19.10;99.90
20288;DHT22;10303;51.960;8.372;2022-12-31T16:55:54;19.10;99.90
20288;DHT22;10303;51.960;8.372;2022-12-31T16:58:32;19.10;99.90
20288;DHT22;10303;51.960;8.372;2022-12-31T17:01:12;19.20;99.90
20288;DHT22;10303;51.960;8.372;2022-12-31T17:03:47;19.20;99.90
20288;DHT22;10303;51.960;8.372;2022-12-31T17:06:19;19.20;99.90
20288;DHT22;10303;51.960;8.372;2022-12-31T17:11:30;19.30;99.90
20288;DHT22;10303;51.960;8.372;2022-12-31T17:16:35;19.20;99.90
20288;DHT22;10303;51.960;8.372;2022-12-31T17:19:04;19.30;99.90
20288;DHT22;10303;51.960;8.372;2022-12-31T17:21:31;19.20;99.90
20288;DHT22;10303;51.960;8.372;2022-12-31T17:24:03;19.20;99.90
20288;DHT22;10303;51.960;8.372;2022-12-31T17:26:36;19.20;99.90
20288;DHT22;10303;51.960;8.372;2022-12-31T17:29:02;19.20;99.90
20288;DHT22;10303;51.960;8.372;2022-12-31T17:31:38;19.20;99.90
20288;DHT22;10303;51.960;8.372;2022-12-31T17:39:59;19.10;99.90
20288;DHT22;10303;51.960;8.372;2022-12-31T17:42:33;19.00;99.90
20288;DHT22;10303;51.960;8.372;2022-12-31T17:45:06;19.00;99.90
20288;DHT22;10303;51.960;8.372;2022-12-31T17:47:45;18.90;99.90
20288;DHT22;10303;51.960;8.372;2022-12-31T17:50:21;19.00;99.90
20288;DHT22;10303;51.960;8.372;2022-12-31T17:52:49;19.00;99.90
20288;DHT22;10303;51.960;8.372;2022-12-31T17:55:32;19.00;99.90
20288;DHT22;10303;51.960;8.372;2022-12-31T17:58:02;19.00;99.90
20288;DHT22;10303;51.960;8.372;2022-12-31T18:00:30;19.00;99.90
20288;DHT22;10303;51.960;8.372;2022-12-31T18:02:58;19.00;99.90
20288;DHT22;10303;51.960;8.372;2022-12-31T18:05:24;19.00;99.90
20288;DHT22;10303;51.960;8.372;2022-12-31T18:07:51;19.10;99.90
20288;DHT22;10303;51.960;8.372;2022-12-31T18:10:19;19.10;99.90
20288;DHT22;10303;51.960;8.372;2022-12-31T18:12:48;19.10;99.90
20288;DHT22;10303;51.960;8.372;2022-12-31T18:15:17;19.10;99.90
20288;DHT22;10303;51.960;8.372;2022-12-31T18:17:46;19.20;99.90
20288;DHT22;10303;51.960;8.372;2022-12-31T18:20:12;19.10;99.90
20288;DHT22;10303;51.960;8.372;2022-12-31T18:22:40;19.10;99.90
20288;DHT22;10303;51.960;8.372;2022-12-31T18:25:11;19.20;99.90
20288;DHT22;10303;51.960;8.372;2022-12-31T18:27:41;19.20;99.90
20288;DHT22;10303;51.960;8.372;2022-12-31T18:30:09;19.20;99.90
20288;DHT22;10303;51.960;8.372;2022-12-31T18:32:37;19.20;99.90
20288;DHT22;10303;51.960;8.372;2022-12-31T18:35:13;19.30;99.90
20288;DHT22;10303;51.960;8.372;2022-12-31T18:37:40;19.10;99.90
20288;DHT22;10303;51.960;8.372;2022-12-31T18:40:08;19.20;99.90
20288;DHT22;10303;51.960;8.372;2022-12-31T18:42:35;19.20;99.90
20288;DHT22;10303;51.960;8.372;2022-12-31T18:45:02;19.10;99.90
20288;DHT22;10303;51.960;8.372;2022-12-31T18:47:28;19.10;99.90
20288;DHT22;10303;51.960;8.372;2022-12-31T18:49:54;19.10;99.90
20288;DHT22;10303;51.960;8.372;2022-12-31T18:52:21;19.10;99.90
20288;DHT22;10303;51.960;8.372;2022-12-31T18:54:48;19.20;99.90
20288;DHT22;10303;51.960;8.372;2022-12-31T18:57:14;19.20;99.90
20288;DHT22;10303;51.960;8.372;2022-12-31T18:59:41;19.30;99.90
20288;DHT22;10303;51.960;8.372;2022-12-31T19:02:17;19.20;99.90
20288;DHT22;10303;51.960;8.372;2022-12-31T19:04:45;19.20;99.90
20288;DHT22;10303;51.960;8.372;2022-12-31T19:07:12;19.20;99.90
20288;DHT22;10303;51.960;8.372;2022-12-31T19:09:38;19.20;99.90
20288;DHT22;10303;51.960;8.372;2022-12-31T19:12:04;19.20;99.90
20288;DHT22;10303;51.960;8.372;2022-12-31T19:14:30;19.20;99.90
20288;DHT22;10303;51.960;8.372;2022-12-31T19:16:56;19.20;99.90
20288;DHT22;10303;51.960;8.372;2022-12-31T19:19:24;19.20;99.90
20288;DHT22;10303;51.960;8.372;2022-12-31T19:21:50;19.20;99.90
20288;DHT22;10303;51.960;8.372;2022-12-31T19:24:24;19.20;99.90
20288;DHT22;10303;51.960;8.372;2022-12-31T19:26:53;19.20;99.90
20288;DHT22;10303;51.960;8.372;2022-12-31T19:29:22;19.20;99.90
20288;DHT22;10303;51.960;8.372;2022-12-31T19:31:50;19.30;99.90
20288;DHT22;10303;51.960;8.372;2022-12-31T19:34:16;19.30;99.90
20288;DHT22;10303;51.960;8.372;2022-12-31T19:36:42;19.30;99.90
20288;DHT22;10303;51.960;8.372;2022-12-31T19:39:17;19.20;99.90
20288;DHT22;10303;51.960;8.372;2022-12-31T19:41:46;19.10;99.90
20288;DHT22;10303;51.960;8.372;2022-12-31T19:44:16;19.10;99.90
20288;DHT22;10303;51.960;8.372;2022-12-31T19:46:44;19.10;99.30
20288;DHT22;10303;51.960;8.372;2022-12-31T19:49:12;19.10;99.50
20288;DHT22;10303;51.960;8.372;2022-12-31T19:51:39;19.20;99.90
20288;DHT22;10303;51.960;8.372;2022-12-31T19:54:06;19.10;98.70
20288;DHT22;10303;51.960;8.372;2022-12-31T19:56:32;19.10;98.60
20288;DHT22;10303;51.960;8.372;2022-12-31T19:59:06;19.10;98.80
20288;DHT22;10303;51.960;8.372;2022-12-31T20:01:33;19.10;98.40
20288;DHT22;10303;51.960;8.372;2022-12-31T20:04:00;19.10;98.30
20288;DHT22;10303;51.960;8.372;2022-12-31T20:06:25;19.20;97.40
20288;DHT22;10303;51.960;8.372;2022-12-31T20:08:51;19.20;97.90
20288;DHT22;10303;51.960;8.372;2022-12-31T20:11:19;19.20;97.90
20288;DHT22;10303;51.960;8.372;2022-12-31T20:13:48;19.20;98.00
20288;DHT22;10303;51.960;8.372;2022-12-31T20:16:17;19.30;98.00
20288;DHT22;10303;51.960;8.372;2022-12-31T20:18:46;19.20;97.70
20288;DHT22;10303;51.960;8.372;2022-12-31T20:21:18;19.30;97.10
20288;DHT22;10303;51.960;8.372;2022-12-31T20:23:47;19.10;96.30